sensor_id;sensor_type;location;lat;lon;timestamp;pressure;altitude;pressure_sealevel;temperature;humidity
62712;BME280;48772;55.586;37.730;2022-11-11T00:01:28;99638.47;;;7.85;100.00
62712;BME280;48772;55.586;37.730;2022-11-11T00:04:13;99680.19;;;8.08;100.00
62712;BME280;48772;55.586;37.730;2022-11-11T00:06:58;99661.31;;;8.00;100.00
62712;BME280;48772;55.586;37.730;2022-11-11T00:09:42;99655.03;;;8.01;100.00
62712;BME280;48772;55.586;37.730;2022-11-11T00:12:29;99643.38;;;7.91;100.00
62712;BME280;48772;55.586;37.730;2022-11-11T00:15:13;99675.34;;;8.02;100.00
62712;BME280;48772;55.586;37.730;2022-11-11T00:17:57;99675.53;;;7.99;100.00
62712;BME280;48772;55.586;37.730;2022-11-11T00:21:01;99650.38;;;7.80;100.00
62712;BME280;48772;55.586;37.730;2022-11-11T00:24:05;99663.34;;;7.84;100.00
62712;BME280;48772;55.586;37.730;2022-11-11T00:27:14;99667.88;;;7.82;100.00
62712;BME280;48772;55.586;37.730;2022-11-11T00:30:00;99666.19;;;7.81;100.00
62712;BME280;48772;55.586;37.730;2022-11-11T00:32:44;99672.22;;;7.83;100.00
62712;BME280;48772;55.586;37.730;2022-11-11T00:35:29;99656.63;;;7.79;100.00
62712;BME280;48772;55.586;37.730;2022-11-11T00:38:32;99654.72;;;7.81;100.00
62712;BME280;48772;55.586;37.730;2022-11-11T00:41:42;99663.84;;;7.77;100.00
62712;BME280;48772;55.586;37.730;2022-11-11T00:44:27;99659.09;;;7.69;100.00
62712;BME280;48772;55.586;37.730;2022-11-11T00:47:11;99662.78;;;7.79;100.00
62712;BME280;48772;55.586;37.730;2022-11-11T00:50:25;99668.00;;;7.81;100.00
62712;BME280;48772;55.586;37.730;2022-11-11T00:53:30;99662.69;;;7.81;100.00
62712;BME280;48772;55.586;37.730;2022-11-11T00:56:20;99655.78;;;7.78;100.00
62712;BME280;48772;55.586;37.730;2022-11-11T00:59:06;99666.41;;;7.78;100.00
62712;BME280;48772;55.586;37.730;2022-11-11T01:01:51;99654.72;;;7.81;100.00
62712;BME280;48772;55.586;37.730;2022-11-11T01:04:35;99652.91;;;7.81;100.00
62712;BME280;48772;55.586;37.730;2022-11-11T01:07:19;99638.78;;;7.68;100.00
62712;BME280;48772;55.586;37.730;2022-11-11T01:10:04;99650.88;;;7.72;100.00
62712;BME280;48772;55.586;37.730;2022-11-11T01:12:48;99654.19;;;7.76;100.00
62712;BME280;48772;55.586;37.730;2022-11-11T01:15:32;99665.63;;;7.76;100.00
62712;BME280;48772;55.586;37.730;2022-11-11T01:18:23;99657.69;;;7.76;100.00
62712;BME280;48772;55.586;37.730;2022-11-11T01:21:11;99662.47;;;7.71;100.00
62712;BME280;48772;55.586;37.730;2022-11-11T01:23:56;99650.97;;;7.71;100.00
62712;BME280;48772;55.586;37.730;2022-11-11T01:26:40;99649.41;;;7.68;100.00
62712;BME280;48772;55.586;37.730;2022-11-11T01:29:24;99649.19;;;7.71;100.00
62712;BME280;48772;55.586;37.730;2022-11-11T01:32:08;99648.47;;;7.69;100.00
62712;BME280;48772;55.586;37.730;2022-11-11T01:34:52;99667.88;;;7.70;100.00
62712;BME280;48772;55.586;37.730;2022-11-11T01:37:36;99665.13;;;7.71;100.00
62712;BME280;48772;55.586;37.730;2022-11-11T01:40:21;99649.28;;;7.70;100.00
62712;BME280;48772;55.586;37.730;2022-11-11T01:48:44;99653.63;;;7.71;100.00
62712;BME280;48772;55.586;37.730;2022-11-11T01:52:02;99658.84;;;7.72;100.00
62712;BME280;48772;55.586;37.730;2022-11-11T01:54:59;99656.44;;;7.69;100.00
62712;BME280;48772;55.586;37.730;2022-11-11T01:57:59;99649.59;;;7.65;100.00
62712;BME280;48772;55.586;37.730;2022-11-11T02:00:45;99653.63;;;7.71;100.00
62712;BME280;48772;55.586;37.730;2022-11-11T02:03:32;99659.72;;;7.73;100.00
62712;BME280;48772;55.586;37.730;2022-11-11T02:06:19;99663.63;;;7.67;100.00
62712;BME280;48772;55.586;37.730;2022-11-11T02:09:05;99653.88;;;7.68;100.00
62712;BME280;48772;55.586;37.730;2022-11-11T02:11:51;99637.69;;;7.58;100.00
62712;BME280;48772;55.586;37.730;2022-11-11T02:14:58;99656.53;;;7.68;100.00
62712;BME280;48772;55.586;37.730;2022-11-11T02:17:45;99655.56;;;7.69;100.00
62712;BME280;48772;55.586;37.730;2022-11-11T02:20:35;99642.59;;;7.64;100.00
62712;BME280;48772;55.586;37.730;2022-11-11T02:26:20;99663.63;;;7.67;100.00
62712;BME280;48772;55.586;37.730;2022-11-11T02:29:12;99655.47;;;7.70;100.00
62712;BME280;48772;55.586;37.730;2022-11-11T02:31:57;99650.66;;;7.63;100.00
62712;BME280;48772;55.586;37.730;2022-11-11T02:34:42;99652.81;;;7.70;100.00
62712;BME280;48772;55.586;37.730;2022-11-11T02:37:26;99651.53;;;7.63;100.00
62712;BME280;48772;55.586;37.730;2022-11-11T02:40:18;99654.81;;;7.67;100.00
62712;BME280;48772;55.586;37.730;2022-11-11T02:43:04;99649.41;;;7.68;100.00
62712;BME280;48772;55.586;37.730;2022-11-11T02:45:48;99649.69;;;7.64;100.00
62712;BME280;48772;55.586;37.730;2022-11-11T02:48:33;99645.47;;;7.61;100.00
62712;BME280;48772;55.586;37.730;2022-11-11T02:51:18;99654.69;;;7.68;100.00
62712;BME280;48772;55.586;37.730;2022-11-11T02:54:02;99655.56;;;7.69;100.00
62712;BME280;48772;55.586;37.730;2022-11-11T02:56:46;99648.13;;;7.61;100.00
62712;BME280;48772;55.586;37.730;2022-11-11T02:59:49;99647.91;;;7.64;100.00
62712;BME280;48772;55.586;37.730;2022-11-11T03:02:34;99656.63;;;7.66;100.00
62712;BME280;48772;55.586;37.730;2022-11-11T03:05:18;99654.69;;;7.68;100.00
62712;BME280;48772;55.586;37.730;2022-11-11T03:08:04;99656.53;;;7.68;100.00
62712;BME280;48772;55.586;37.730;2022-11-11T03:10:48;99656.72;;;7.65;100.00
62712;BME280;48772;55.586;37.730;2022-11-11T03:13:32;99660.31;;;7.64;100.00
62712;BME280;48772;55.586;37.730;2022-11-11T03:16:16;99657.56;;;7.65;100.00
62712;BME280;48772;55.586;37.730;2022-11-11T03:19:21;99655.16;;;7.62;100.00
62712;BME280;48772;55.586;37.730;2022-11-11T03:22:05;99654.81;;;7.67;100.00
62712;BME280;48772;55.586;37.730;2022-11-11T03:24:49;99658.31;;;7.67;100.00
62712;BME280;48772;55.586;37.730;2022-11-11T03:27:52;99659.09;;;7.69;100.00
62712;BME280;48772;55.586;37.730;2022-11-11T03:30:38;99657.34;;;7.68;100.00
62712;BME280;48772;55.586;37.730;2022-11-11T03:33:23;99654.28;;;7.62;100.00
62712;BME280;48772;55.586;37.730;2022-11-11T03:36:07;99634.72;;;7.50;100.00
62712;BME280;48772;55.586;37.730;2022-11-11T03:38:51;99664.69;;;7.65;100.00
62712;BME280;48772;55.586;37.730;2022-11-11T03:41:35;99647.69;;;7.55;100.00
62712;BME280;48772;55.586;37.730;2022-11-11T03:44:19;99652.91;;;7.56;100.00
62712;BME280;48772;55.586;37.730;2022-11-11T03:47:04;99657.03;;;7.60;100.00
62712;BME280;48772;55.586;37.730;2022-11-11T03:49:48;99666.78;;;7.60;100.00
62712;BME280;48772;55.586;37.730;2022-11-11T03:52:33;99659.56;;;7.49;100.00
62712;BME280;48772;55.586;37.730;2022-11-11T03:55:17;99669.53;;;7.58;100.00
62712;BME280;48772;55.586;37.730;2022-11-11T03:58:02;99671.38;;;7.58;100.00
62712;BME280;48772;55.586;37.730;2022-11-11T04:00:46;99645.00;;;7.42;100.00
62712;BME280;48772;55.586;37.730;2022-11-11T04:03:30;99666.56;;;7.50;100.00
62712;BME280;48772;55.586;37.730;2022-11-11T04:06:33;99660.19;;;7.53;100.00
62712;BME280;48772;55.586;37.730;2022-11-11T04:09:37;99668.91;;;7.55;100.00
62712;BME280;48772;55.586;37.730;2022-11-11T04:12:41;99675.72;;;7.59;100.00
62712;BME280;48772;55.586;37.730;2022-11-11T04:15:45;99670.41;;;7.59;100.00
62712;BME280;48772;55.586;37.730;2022-11-11T04:18:48;99668.06;;;7.54;100.00
62712;BME280;48772;55.586;37.730;2022-11-11T04:21:51;99667.44;;;7.51;100.00
62712;BME280;48772;55.586;37.730;2022-11-11T04:24:36;99674.75;;;7.60;100.00
62712;BME280;48772;55.586;37.730;2022-11-11T04:27:39;99665.28;;;7.56;100.00
62712;BME280;48772;55.586;37.730;2022-11-11T04:30:23;99667.13;;;7.55;100.00
62712;BME280;48772;55.586;37.730;2022-11-11T04:33:11;99676.97;;;7.53;100.00
62712;BME280;48772;55.586;37.730;2022-11-11T04:35:56;99678.13;;;7.49;100.00
62712;BME280;48772;55.586;37.730;2022-11-11T04:38:41;99687.28;;;7.58;100.00
62712;BME280;48772;55.586;37.730;2022-11-11T04:41:44;99658.91;;;7.33;100.00
62712;BME280;48772;55.586;37.730;2022-11-11T04:44:29;99699.50;;;7.60;100.00
62712;BME280;48772;55.586;37.730;2022-11-11T04:47:32;99687.78;;;7.50;100.00
62712;BME280;48772;55.586;37.730;2022-11-11T04:50:20;99668.25;;;7.39;100.00
62712;BME280;48772;55.586;37.730;2022-11-11T04:53:07;99661.22;;;7.38;100.00
62712;BME280;48772;55.586;37.730;2022-11-11T04:55:53;99681.00;;;7.46;100.00
62712;BME280;48772;55.586;37.730;2022-11-11T04:59:00;99682.16;;;7.42;100.00
62712;BME280;48772;55.586;37.730;2022-11-11T05:02:00;99711.47;;;7.53;100.00
62712;BME280;48772;55.586;37.730;2022-11-11T05:05:04;99699.25;;;7.51;100.00
62712;BME280;48772;55.586;37.730;2022-11-11T05:07:50;99705.75;;;7.59;100.00
62712;BME280;48772;55.586;37.730;2022-11-11T05:10:54;99691.84;;;7.56;100.00
62712;BME280;48772;55.586;37.730;2022-11-11T05:14:03;99703.94;;;7.60;100.00
62712;BME280;48772;55.586;37.730;2022-11-11T05:17:11;99669.94;;;7.40;100.00
62712;BME280;48772;55.586;37.730;2022-11-11T05:20:17;99699.50;;;7.60;100.00
62712;BME280;48772;55.586;37.730;2022-11-11T05:23:31;99668.25;;;7.39;100.00
62712;BME280;48772;55.586;37.730;2022-11-11T05:27:15;99690.13;;;7.55;100.00
62712;BME280;48772;55.586;37.730;2022-11-11T05:30:03;99688.34;;;7.55;100.00
62712;BME280;48772;55.586;37.730;2022-11-11T05:32:54;99682.19;;;7.55;100.00
62712;BME280;48772;55.586;37.730;2022-11-11T05:35:53;99709.72;;;7.66;100.00
62712;BME280;48772;55.586;37.730;2022-11-11T05:39:06;99700.78;;;7.67;100.00
62712;BME280;48772;55.586;37.730;2022-11-11T05:42:28;99667.09;;;7.43;100.00
62712;BME280;48772;55.586;37.730;2022-11-11T05:45:59;99709.50;;;7.69;100.00
62712;BME280;48772;55.586;37.730;2022-11-11T05:49:18;99696.22;;;7.57;100.00
62712;BME280;48772;55.586;37.730;2022-11-11T05:52:46;99707.78;;;7.68;100.00
62712;BME280;48772;55.586;37.730;2022-11-11T05:59:54;99710.53;;;7.67;100.00
62712;BME280;48772;55.586;37.730;2022-11-11T06:02:50;99718.50;;;7.67;100.00
62712;BME280;48772;55.586;37.730;2022-11-11T06:05:40;99703.31;;;7.56;100.00
62712;BME280;48772;55.586;37.730;2022-11-11T06:08:31;99728.19;;;7.68;100.00
62712;BME280;48772;55.586;37.730;2022-11-11T06:11:22;99699.69;;;7.57;100.00
62712;BME280;48772;55.586;37.730;2022-11-11T06:14:46;99694.06;;;7.49;100.00
62712;BME280;48772;55.586;37.730;2022-11-11T06:17:34;99711.16;;;7.58;100.00
62712;BME280;48772;55.586;37.730;2022-11-11T06:20:39;99691.69;;;7.45;100.00
62712;BME280;48772;55.586;37.730;2022-11-11T06:28:17;99738.38;;;7.74;100.00
62712;BME280;48772;55.586;37.730;2022-11-11T06:31:09;99734.63;;;7.64;100.00
62712;BME280;48772;55.586;37.730;2022-11-11T06:34:30;99748.97;;;7.74;100.00
62712;BME280;48772;55.586;37.730;2022-11-11T06:37:53;99758.78;;;7.73;100.00
62712;BME280;48772;55.586;37.730;2022-11-11T06:41:43;99727.72;;;7.61;100.00
62712;BME280;48772;55.586;37.730;2022-11-11T06:45:13;99711.28;;;7.56;100.00
62712;BME280;48772;55.586;37.730;2022-11-11T06:48:32;99729.00;;;7.68;100.00
62712;BME280;48772;55.586;37.730;2022-11-11T06:52:08;99709.03;;;7.63;100.00
62712;BME280;48772;55.586;37.730;2022-11-11T06:55:17;99713.81;;;7.58;100.00
62712;BME280;48772;55.586;37.730;2022-11-11T06:58:09;99709.72;;;7.66;100.00
62712;BME280;48772;55.586;37.730;2022-11-11T07:05:05;99733.72;;;7.77;100.00
62712;BME280;48772;55.586;37.730;2022-11-11T07:08:23;99721.06;;;7.68;100.00
62712;BME280;48772;55.586;37.730;2022-11-11T07:11:45;99718.59;;;7.65;100.00
62712;BME280;48772;55.586;37.730;2022-11-11T07:14:56;99757.06;;;7.85;100.00
62712;BME280;48772;55.586;37.730;2022-11-11T07:18:24;99749.44;;;7.80;100.00
62712;BME280;48772;55.586;37.730;2022-11-11T07:21:21;99744.34;;;7.77;100.00
62712;BME280;48772;55.586;37.730;2022-11-11T07:24:47;99721.25;;;7.65;100.00
62712;BME280;48772;55.586;37.730;2022-11-11T07:28:01;99725.06;;;7.61;100.00
62712;BME280;48772;55.586;37.730;2022-11-11T07:30:55;99723.06;;;7.65;100.00
62712;BME280;48772;55.586;37.730;2022-11-11T07:34:11;99761.97;;;7.91;100.00
62712;BME280;48772;55.586;37.730;2022-11-11T07:42:04;99772.50;;;7.92;100.00
62712;BME280;48772;55.586;37.730;2022-11-11T07:45:37;99756.34;;;7.83;100.00
62712;BME280;48772;55.586;37.730;2022-11-11T07:48:22;99738.91;;;7.66;100.00
62712;BME280;48772;55.586;37.730;2022-11-11T07:51:10;99758.13;;;7.82;100.00
62712;BME280;48772;55.586;37.730;2022-11-11T07:53:57;99765.91;;;7.85;100.00
62712;BME280;48772;55.586;37.730;2022-11-11T07:56:47;99742.09;;;7.71;100.00
62712;BME280;48772;55.586;37.730;2022-11-11T08:00:03;99787.06;;;7.99;100.00
62712;BME280;48772;55.586;37.730;2022-11-11T08:19:36;99737.09;;;7.79;100.00
62712;BME280;48772;55.586;37.730;2022-11-11T08:22:26;99753.34;;;7.87;100.00
62712;BME280;48772;55.586;37.730;2022-11-11T08:25:43;99774.41;;;8.03;100.00
62712;BME280;48772;55.586;37.730;2022-11-11T08:28:34;99774.31;;;8.04;100.00
62712;BME280;48772;55.586;37.730;2022-11-11T08:31:32;99747.00;;;7.90;100.00
62712;BME280;48772;55.586;37.730;2022-11-11T08:34:55;99786.44;;;8.08;100.00
62712;BME280;48772;55.586;37.730;2022-11-11T08:38:33;99753.47;;;7.98;100.00
62712;BME280;48772;55.586;37.730;2022-11-11T09:03:10;99768.41;;;8.13;100.00
62712;BME280;48772;55.586;37.730;2022-11-11T09:05:56;99748.72;;;8.03;100.00
62712;BME280;48772;55.586;37.730;2022-11-11T09:08:42;99747.75;;;8.04;100.00
62712;BME280;48772;55.586;37.730;2022-11-11T09:11:27;99761.16;;;8.15;100.00
62712;BME280;48772;55.586;37.730;2022-11-11T09:14:20;99741.59;;;8.04;100.00
62712;BME280;48772;55.586;37.730;2022-11-11T09:17:05;99767.63;;;8.11;100.00
62712;BME280;48772;55.586;37.730;2022-11-11T09:19:50;99749.44;;;8.05;100.00
62712;BME280;48772;55.586;37.730;2022-11-11T09:22:47;99768.91;;;8.18;100.00
62712;BME280;48772;55.586;37.730;2022-11-11T09:25:31;99782.44;;;8.28;100.00
62712;BME280;48772;55.586;37.730;2022-11-11T09:28:16;99752.56;;;8.12;100.00
62712;BME280;48772;55.586;37.730;2022-11-11T09:31:00;99778.22;;;8.25;100.00
62712;BME280;48772;55.586;37.730;2022-11-11T09:33:45;99769.06;;;8.29;100.00
62712;BME280;48772;55.586;37.730;2022-11-11T09:36:29;99770.56;;;8.33;100.00
62712;BME280;48772;55.586;37.730;2022-11-11T09:39:14;99773.41;;;8.30;100.00
62712;BME280;48772;55.586;37.730;2022-11-11T09:45:19;99769.28;;;8.26;100.00
62712;BME280;48772;55.586;37.730;2022-11-11T09:51:19;99771.50;;;8.32;100.00
62712;BME280;48772;55.586;37.730;2022-11-11T09:54:08;99759.88;;;8.21;100.00
62712;BME280;48772;55.586;37.730;2022-11-11T09:56:58;99787.00;;;8.38;100.00
62712;BME280;48772;55.586;37.730;2022-11-11T09:59:48;99790.94;;;8.45;100.00
62712;BME280;48772;55.586;37.730;2022-11-11T10:02:38;99780.31;;;8.45;100.00
62712;BME280;48772;55.586;37.730;2022-11-11T10:08:41;99763.09;;;8.51;100.00
62712;BME280;48772;55.586;37.730;2022-11-11T10:14:46;99777.47;;;8.48;100.00
62712;BME280;48772;55.586;37.730;2022-11-11T10:17:47;99775.44;;;8.39;100.00
62712;BME280;48772;55.586;37.730;2022-11-11T10:20:40;99789.78;;;8.49;100.00
62712;BME280;48772;55.586;37.730;2022-11-11T10:23:31;99765.34;;;8.32;100.00
62712;BME280;48772;55.586;37.730;2022-11-11T10:26:24;99748.22;;;8.23;100.00
62712;BME280;48772;55.586;37.730;2022-11-11T10:29:22;99778.63;;;8.44;100.00
62712;BME280;48772;55.586;37.730;2022-11-11T10:32:20;99803.81;;;8.51;100.00
62712;BME280;48772;55.586;37.730;2022-11-11T10:35:23;99809.13;;;8.51;100.00
62712;BME280;48772;55.586;37.730;2022-11-11T10:43:58;99824.78;;;8.56;100.00
62712;BME280;48772;55.586;37.730;2022-11-11T10:47:11;99783.63;;;8.36;100.00
62712;BME280;48772;55.586;37.730;2022-11-11T10:50:09;99803.31;;;8.46;100.00
62712;BME280;48772;55.586;37.730;2022-11-11T10:56:08;99820.94;;;8.47;100.00
62712;BME280;48772;55.586;37.730;2022-11-11T10:59:25;99831.47;;;8.49;100.00
62712;BME280;48772;55.586;37.730;2022-11-11T11:02:21;99820.06;;;8.34;100.00
62712;BME280;48772;55.586;37.730;2022-11-11T11:05:19;99788.19;;;8.34;100.00
62712;BME280;48772;55.586;37.730;2022-11-11T11:08:09;99814.56;;;8.50;100.00
62712;BME280;48772;55.586;37.730;2022-11-11T11:11:08;99806.91;;;8.45;100.00
62712;BME280;48772;55.586;37.730;2022-11-11T11:13:58;99800.53;;;8.35;100.00
62712;BME280;48772;55.586;37.730;2022-11-11T11:16:50;99820.84;;;8.49;100.00
62712;BME280;48772;55.586;37.730;2022-11-11T11:19:35;99821.34;;;8.54;100.00
62712;BME280;48772;55.586;37.730;2022-11-11T11:22:27;99824.53;;;8.59;100.00
62712;BME280;48772;55.586;37.730;2022-11-11T11:25:25;99836.03;;;8.59;100.00
62712;BME280;48772;55.586;37.730;2022-11-11T11:28:13;99841.25;;;8.61;100.00
62712;BME280;48772;55.586;37.730;2022-11-11T11:30:59;99826.16;;;8.49;100.00
62712;BME280;48772;55.586;37.730;2022-11-11T11:33:54;99838.59;;;8.61;100.00
62712;BME280;48772;55.586;37.730;2022-11-11T11:36:40;99851.97;;;8.59;100.00
62712;BME280;48772;55.586;37.730;2022-11-11T11:39:32;99833.06;;;8.51;100.00
62712;BME280;48772;55.586;37.730;2022-11-11T11:42:28;99856.00;;;8.52;100.00
62712;BME280;48772;55.586;37.730;2022-11-11T11:45:25;99857.69;;;8.53;100.00
62712;BME280;48772;55.586;37.730;2022-11-11T11:52:09;99848.34;;;8.48;100.00
62712;BME280;48772;55.586;37.730;2022-11-11T11:54:54;99860.03;;;8.45;100.00
62712;BME280;48772;55.586;37.730;2022-11-11T11:57:52;99844.09;;;8.45;100.00
62712;BME280;48772;55.586;37.730;2022-11-11T12:00:55;99845.91;;;8.45;100.00
62712;BME280;48772;55.586;37.730;2022-11-11T12:10:29;99844.09;;;8.45;100.00
62712;BME280;48772;55.586;37.730;2022-11-11T12:19:36;99817.22;;;8.37;100.00
62712;BME280;48772;55.586;37.730;2022-11-11T12:25:17;99831.88;;;8.43;100.00
62712;BME280;48772;55.586;37.730;2022-11-11T12:34:15;99817.63;;;8.31;100.00
62712;BME280;48772;55.586;37.730;2022-11-11T12:37:29;99828.81;;;8.49;100.00
62712;BME280;48772;55.586;37.730;2022-11-11T12:49:43;99831.47;;;8.49;100.00
62712;BME280;48772;55.586;37.730;2022-11-11T12:52:42;99835.59;;;8.53;100.00
62712;BME280;48772;55.586;37.730;2022-11-11T13:07:27;99829.44;;;8.52;100.00
62712;BME280;48772;55.586;37.730;2022-11-11T13:17:18;99801.38;;;8.48;100.00
62712;BME280;48772;55.586;37.730;2022-11-11T13:22:56;99818.19;;;8.61;100.00
62712;BME280;48772;55.586;37.730;2022-11-11T13:25:47;99819.34;;;8.57;100.00
62712;BME280;48772;55.586;37.730;2022-11-11T13:28:46;99818.28;;;8.60;100.00
62712;BME280;48772;55.586;37.730;2022-11-11T13:31:39;99792.31;;;8.51;100.00
62712;BME280;48772;55.586;37.730;2022-11-11T13:34:28;99790.75;;;8.48;100.00
62712;BME280;48772;55.586;37.730;2022-11-11T13:37:30;99810.81;;;8.65;100.00
62712;BME280;48772;55.586;37.730;2022-11-11T13:43:25;99800.09;;;8.54;100.00
62712;BME280;48772;55.586;37.730;2022-11-11T13:49:37;99820.75;;;8.63;100.00
62712;BME280;48772;55.586;37.730;2022-11-11T13:52:30;99838.38;;;8.64;100.00
62712;BME280;48772;55.586;37.730;2022-11-11T13:55:46;99810.72;;;8.54;100.00
62712;BME280;48772;55.586;37.730;2022-11-11T13:58:37;99792.88;;;8.43;100.00
62712;BME280;48772;55.586;37.730;2022-11-11T14:01:33;99800.84;;;8.56;100.00
62712;BME280;48772;55.586;37.730;2022-11-11T14:04:23;99807.31;;;8.64;100.00
62712;BME280;48772;55.586;37.730;2022-11-11T14:10:43;99827.75;;;8.76;100.00
62712;BME280;48772;55.586;37.730;2022-11-11T14:13:52;99782.47;;;8.53;100.00
62712;BME280;48772;55.586;37.730;2022-11-11T14:19:30;99810.63;;;8.80;100.00
62712;BME280;48772;55.586;37.730;2022-11-11T14:22:26;99817.53;;;8.83;100.00
62712;BME280;48772;55.586;37.730;2022-11-11T14:25:27;99823.69;;;8.83;100.00
62712;BME280;48772;55.586;37.730;2022-11-11T14:28:27;99804.34;;;8.69;100.00
62712;BME280;48772;55.586;37.730;2022-11-11T14:34:37;99806.03;;;8.82;100.00
62712;BME280;48772;55.586;37.730;2022-11-11T14:37:51;99810.63;;;8.80;100.00
62712;BME280;48772;55.586;37.730;2022-11-11T14:40:45;99794.78;;;8.66;100.00
62712;BME280;48772;55.586;37.730;2022-11-11T14:43:43;99784.34;;;8.63;100.00
62712;BME280;48772;55.586;37.730;2022-11-11T14:49:55;99798.41;;;8.65;100.00
62712;BME280;48772;55.586;37.730;2022-11-11T14:52:44;99782.88;;;8.59;100.00
62712;BME280;48772;55.586;37.730;2022-11-11T14:55:37;99796.38;;;8.69;100.00
62712;BME280;48772;55.586;37.730;2022-11-11T14:58:31;99775.31;;;8.66;100.00
62712;BME280;48772;55.586;37.730;2022-11-11T15:01:20;99766.50;;;8.65;100.00
62712;BME280;48772;55.586;37.730;2022-11-11T15:04:07;99786.78;;;8.79;100.00
62712;BME280;48772;55.586;37.730;2022-11-11T15:21:47;99794.13;;;8.75;100.00
62712;BME280;48772;55.586;37.730;2022-11-11T15:24:41;99795.84;;;8.76;100.00
62712;BME280;48772;55.586;37.730;2022-11-11T15:27:44;99765.22;;;8.58;100.00
62712;BME280;48772;55.586;37.730;2022-11-11T15:34:34;99759.91;;;8.58;100.00
62712;BME280;48772;55.586;37.730;2022-11-11T15:37:21;99763.28;;;8.60;100.00
62712;BME280;48772;55.586;37.730;2022-11-11T15:40:18;99782.66;;;8.75;100.00
62712;BME280;48772;55.586;37.730;2022-11-11T15:43:03;99788.59;;;8.78;100.00
62712;BME280;48772;55.586;37.730;2022-11-11T15:45:51;99774.38;;;8.67;100.00
62712;BME280;48772;55.586;37.730;2022-11-11T15:48:46;99753.44;;;8.62;100.00
62712;BME280;48772;55.586;37.730;2022-11-11T15:51:35;99782.75;;;8.73;100.00
62712;BME280;48772;55.586;37.730;2022-11-11T15:54:22;99755.97;;;8.64;100.00
62712;BME280;48772;55.586;37.730;2022-11-11T15:57:31;99747.81;;;8.54;100.00
62712;BME280;48772;55.586;37.730;2022-11-11T16:00:31;99743.97;;;8.58;100.00
62712;BME280;48772;55.586;37.730;2022-11-11T16:03:42;99757.06;;;8.61;100.00
62712;BME280;48772;55.586;37.730;2022-11-11T16:06:29;99782.00;;;8.71;100.00
62712;BME280;48772;55.586;37.730;2022-11-11T16:13:14;99778.41;;;8.47;100.00
62712;BME280;48772;55.586;37.730;2022-11-11T16:16:33;99811.69;;;8.65;100.00
62712;BME280;48772;55.586;37.730;2022-11-11T16:19:54;99740.66;;;8.42;100.00
62712;BME280;48772;55.586;37.730;2022-11-11T16:22:45;99777.75;;;8.56;100.00
62712;BME280;48772;55.586;37.730;2022-11-11T16:25:31;99800.97;;;8.67;100.00
62712;BME280;48772;55.586;37.730;2022-11-11T16:28:18;99780.22;;;8.59;100.00
62712;BME280;48772;55.586;37.730;2022-11-11T16:37:11;99768.09;;;8.55;100.00
62712;BME280;48772;55.586;37.730;2022-11-11T16:43:24;99777.66;;;8.58;100.00
62712;BME280;48772;55.586;37.730;2022-11-11T16:46:15;99765.66;;;8.52;100.00
62712;BME280;48772;55.586;37.730;2022-11-11T16:52:17;99765.03;;;8.49;100.00
62712;BME280;48772;55.586;37.730;2022-11-11T16:55:09;99757.28;;;8.46;100.00
62712;BME280;48772;55.586;37.730;2022-11-11T16:58:14;99762.38;;;8.49;100.00
62712;BME280;48772;55.586;37.730;2022-11-11T17:01:15;99768.00;;;8.57;100.00
62712;BME280;48772;55.586;37.730;2022-11-11T17:12:44;99726.34;;;8.32;100.00
62712;BME280;48772;55.586;37.730;2022-11-11T17:15:33;99717.09;;;8.25;100.00
62712;BME280;48772;55.586;37.730;2022-11-11T17:18:22;99717.50;;;8.19;100.00
62712;BME280;48772;55.586;37.730;2022-11-11T17:21:12;99732.50;;;8.33;100.00
62712;BME280;48772;55.586;37.730;2022-11-11T17:23:58;99728.91;;;8.34;100.00
62712;BME280;48772;55.586;37.730;2022-11-11T17:26:46;99687.53;;;8.17;100.00
62712;BME280;48772;55.586;37.730;2022-11-11T17:29:36;99714.44;;;8.25;100.00
62712;BME280;48772;55.586;37.730;2022-11-11T17:32:34;99684.53;;;8.09;100.00
62712;BME280;48772;55.586;37.730;2022-11-11T17:35:30;99664.72;;;8.02;100.00
62712;BME280;48772;55.586;37.730;2022-11-11T17:38:23;99700.06;;;8.15;100.00
62712;BME280;48772;55.586;37.730;2022-11-11T17:41:34;99720.16;;;8.19;100.00
62712;BME280;48772;55.586;37.730;2022-11-11T17:44:29;99705.06;;;8.20;100.00
62712;BME280;48772;55.586;37.730;2022-11-11T17:47:45;99690.81;;;8.08;100.00
62712;BME280;48772;55.586;37.730;2022-11-11T17:50:50;99696.44;;;8.16;100.00
62712;BME280;48772;55.586;37.730;2022-11-11T17:53:40;99712.09;;;8.33;100.00
62712;BME280;48772;55.586;37.730;2022-11-11T17:56:59;99714.75;;;8.33;100.00
62712;BME280;48772;55.586;37.730;2022-11-11T17:59:54;99690.81;;;8.21;100.00
62712;BME280;48772;55.586;37.730;2022-11-11T18:02:59;99714.13;;;8.30;100.00
62712;BME280;48772;55.586;37.730;2022-11-11T18:05:55;99655.34;;;8.09;100.00
62712;BME280;48772;55.586;37.730;2022-11-11T18:09:12;99699.56;;;8.35;100.00
62712;BME280;48772;55.586;37.730;2022-11-11T18:12:05;99678.50;;;8.20;100.00
62712;BME280;48772;55.586;37.730;2022-11-11T18:14:59;99677.75;;;8.18;100.00
62712;BME280;48772;55.586;37.730;2022-11-11T18:17:45;99667.22;;;8.16;100.00
62712;BME280;48772;55.586;37.730;2022-11-11T18:20:30;99691.72;;;8.34;100.00
62712;BME280;48772;55.586;37.730;2022-11-11T18:23:21;99690.44;;;8.27;100.00
62712;BME280;48772;55.586;37.730;2022-11-11T18:26:17;99682.34;;;8.16;100.00
62712;BME280;48772;55.586;37.730;2022-11-11T18:29:07;99657.06;;;8.10;100.00
62712;BME280;48772;55.586;37.730;2022-11-11T18:32:41;99649.91;;;8.11;100.00
62712;BME280;48772;55.586;37.730;2022-11-11T18:35:29;99652.91;;;8.19;100.00
62712;BME280;48772;55.586;37.730;2022-11-11T18:38:28;99666.84;;;8.22;100.00
62712;BME280;48772;55.586;37.730;2022-11-11T18:41:19;99649.41;;;8.18;100.00
62712;BME280;48772;55.586;37.730;2022-11-11T18:44:04;99667.25;;;8.29;100.00